Terminal Aerodrome Forecast
Issued by NWS Twin Cities, MN

Home | Current Version | Previous Version | Text Only | Print | Product List | Glossary Off
Versions: 1 2 3 4 5 6 7 8 9 10 11 12 13 14 15 16 17 18 19 20 21 22 23 24 25 26

278
FTUS43 KMPX 042049 AAA
TAFMSP
TAF AMD
KMSP 042049Z 0421/0524 30007KT P6SM SCT015 BKN035
     FM042230 30007KT P6SM SCT025 BKN090
     FM050300 25003KT P6SM BKN250
     FM051400 15006KT P6SM SCT025 BKN090
     FM052100 16007KT 4SM -SN SCT025 OVC050=

USA.gov is the U.S. government's official web portal to all federal, state and local government web resources and services.